Main page
METAR-TAF:

METAR-TAF

Airports :

Cambridge, England

Cambridge Airport

latitude: 52-12N, longitude: 000-11E, elevation: 15 m

Current weather observation

The report was made 12 hours and 2 minutes ago, at 16:50 UTC
Wind 17 kt from the South/Southwest
Temperature 13°C
Humidity 72%
Pressure 999 hPa
Visibility 10 km or more
Scattered clouds at a height of 3900 ft

METAR: EGSC 211650Z 20017KT 9999 SCT039 13/08 Q0999

Time: 05:52 (04:52 UTC)

Forecast

The report was made 14 hours and 50 minutes ago, at 14:02 UTC
Forecast valid from 21 at 15 UTC to 21 at 19 UTC
Wind 18 kt from the South/Southwest with gusts up to 28 kt
Visibility 10 km or more
Scattered clouds at a height of 2500 ft
Probability 30% :
Temporary
from 21 at 15 UTC to 21 at 19 UTC
Wind 22 kt from the Southwest with gusts up to 38 kt
Visibility: 7000 m
rain showers

TAF: EGSC 211402Z 2115/2119 21018G28KT 9999 SCT025 PROB30 TEMPO 2115/2119 22022G38KT 7000 SHRA

Weather observations and forecasts of more than 4000 airports (METAR and TAF reports).

The available stations are represented by yellow and red dots on the map.

Hover mouse over dot to see the name of the station.

Then click to see weather observations and forecasts.

To change the map : click on the green buttons with a black cross to zoom in, on the green button with a dash to zoom out, or on the green arrows for adjacent maps.


METAR-TAF: